sensor_id;sensor_type;location;lat;lon;timestamp;pressure;altitude;pressure_sealevel;temperature;humidity
70916;BME280;58557;50.982;-3.222;2022-12-18T00:01:22;101198.25;;;3.00;44.64
70916;BME280;58557;50.982;-3.222;2022-12-18T00:03:46;101194.42;;;4.22;42.16
70916;BME280;58557;50.982;-3.222;2022-12-18T00:06:11;101183.80;;;3.51;42.59
70916;BME280;58557;50.982;-3.222;2022-12-18T00:08:36;101175.27;;;3.80;42.15
70916;BME280;58557;50.982;-3.222;2022-12-18T00:11:04;101170.19;;;3.64;43.30
70916;BME280;58557;50.982;-3.222;2022-12-18T00:13:27;101167.06;;;3.76;41.21
70916;BME280;58557;50.982;-3.222;2022-12-18T00:15:53;101157.20;;;3.98;40.57
70916;BME280;58557;50.982;-3.222;2022-12-18T00:18:19;101148.95;;;2.86;40.78
70916;BME280;58557;50.982;-3.222;2022-12-18T00:20:44;101144.61;;;3.51;42.06
70916;BME280;58557;50.982;-3.222;2022-12-18T00:23:10;101144.73;;;3.01;41.43
70916;BME280;58557;50.982;-3.222;2022-12-18T00:25:36;101141.63;;;3.57;41.17
70916;BME280;58557;50.982;-3.222;2022-12-18T00:28:00;101134.55;;;3.75;41.91
70916;BME280;58557;50.982;-3.222;2022-12-18T00:30:25;101133.27;;;3.23;42.47
70916;BME280;58557;50.982;-3.222;2022-12-18T00:32:51;101124.61;;;4.12;41.39
70916;BME280;58557;50.982;-3.222;2022-12-18T00:35:17;101132.77;;;2.90;41.38
70916;BME280;58557;50.982;-3.222;2022-12-18T00:37:43;101135.63;;;3.97;40.64
70916;BME280;58557;50.982;-3.222;2022-12-18T00:40:09;101145.96;;;3.22;42.15
70916;BME280;58557;50.982;-3.222;2022-12-18T00:42:33;101150.51;;;3.52;41.57
70916;BME280;58557;50.982;-3.222;2022-12-18T00:45:00;101141.92;;;4.22;41.31
70916;BME280;58557;50.982;-3.222;2022-12-18T00:47:25;101140.60;;;2.83;41.74
70916;BME280;58557;50.982;-3.222;2022-12-18T00:49:50;101134.90;;;3.60;41.06
70916;BME280;58557;50.982;-3.222;2022-12-18T00:52:16;101133.40;;;3.27;43.17
70916;BME280;58557;50.982;-3.222;2022-12-18T00:54:41;101129.86;;;2.78;42.13
70916;BME280;58557;50.982;-3.222;2022-12-18T00:57:06;101134.82;;;3.64;42.57
70916;BME280;58557;50.982;-3.222;2022-12-18T00:59:32;101137.02;;;3.26;41.72
70916;BME280;58557;50.982;-3.222;2022-12-18T01:01:58;101139.56;;;3.16;40.95
70916;BME280;58557;50.982;-3.222;2022-12-18T01:04:23;101142.09;;;4.15;39.79
70916;BME280;58557;50.982;-3.222;2022-12-18T01:06:49;101141.92;;;3.95;40.32
70916;BME280;58557;50.982;-3.222;2022-12-18T01:09:14;101149.57;;;3.18;41.07
70916;BME280;58557;50.982;-3.222;2022-12-18T01:11:40;101147.54;;;3.05;41.66
70916;BME280;58557;50.982;-3.222;2022-12-18T01:14:05;101139.23;;;3.65;41.62
70916;BME280;58557;50.982;-3.222;2022-12-18T01:16:30;101125.85;;;3.04;42.21
70916;BME280;58557;50.982;-3.222;2022-12-18T01:18:56;101111.40;;;3.94;40.61
70916;BME280;58557;50.982;-3.222;2022-12-18T01:21:22;101105.11;;;3.26;41.86
70916;BME280;58557;50.982;-3.222;2022-12-18T01:23:46;101095.42;;;3.93;41.36
70916;BME280;58557;50.982;-3.222;2022-12-18T01:26:14;101090.32;;;3.81;39.95
70916;BME280;58557;50.982;-3.222;2022-12-18T01:28:36;101095.19;;;3.21;41.39
70916;BME280;58557;50.982;-3.222;2022-12-18T01:31:12;101099.04;;;3.11;42.30
70916;BME280;58557;50.982;-3.222;2022-12-18T01:33:27;101095.29;;;3.34;40.93
70916;BME280;58557;50.982;-3.222;2022-12-18T01:35:52;101099.75;;;2.93;42.12
70916;BME280;58557;50.982;-3.222;2022-12-18T01:38:17;101098.15;;;3.25;41.29
70916;BME280;58557;50.982;-3.222;2022-12-18T01:40:43;101102.54;;;3.27;42.25
70916;BME280;58557;50.982;-3.222;2022-12-18T01:43:09;101099.21;;;2.56;43.63
70916;BME280;58557;50.982;-3.222;2022-12-18T01:45:34;101100.14;;;2.64;43.56
70916;BME280;58557;50.982;-3.222;2022-12-18T01:48:02;101093.37;;;3.52;42.67
70916;BME280;58557;50.982;-3.222;2022-12-18T01:50:30;101094.80;;;3.66;41.91
70916;BME280;58557;50.982;-3.222;2022-12-18T01:52:53;101086.93;;;4.09;41.43
70916;BME280;58557;50.982;-3.222;2022-12-18T01:55:19;101085.58;;;3.77;41.85
70916;BME280;58557;50.982;-3.222;2022-12-18T01:57:42;101087.59;;;3.59;41.91
70916;BME280;58557;50.982;-3.222;2022-12-18T02:00:11;101082.55;;;3.96;41.74
70916;BME280;58557;50.982;-3.222;2022-12-18T02:02:32;101074.06;;;3.68;41.92
70916;BME280;58557;50.982;-3.222;2022-12-18T02:04:58;101067.35;;;2.85;43.51
70916;BME280;58557;50.982;-3.222;2022-12-18T02:07:30;101072.26;;;2.54;44.99
70916;BME280;58557;50.982;-3.222;2022-12-18T02:09:52;101066.74;;;1.77;46.60
70916;BME280;58557;50.982;-3.222;2022-12-18T02:12:18;101073.29;;;3.30;43.56
70916;BME280;58557;50.982;-3.222;2022-12-18T02:14:44;101065.60;;;3.44;43.20
70916;BME280;58557;50.982;-3.222;2022-12-18T02:17:10;101061.34;;;3.29;44.06
70916;BME280;58557;50.982;-3.222;2022-12-18T02:19:44;101060.63;;;3.41;43.52
70916;BME280;58557;50.982;-3.222;2022-12-18T02:22:06;101068.15;;;2.33;43.88
70916;BME280;58557;50.982;-3.222;2022-12-18T02:24:31;101068.31;;;3.31;44.60
70916;BME280;58557;50.982;-3.222;2022-12-18T02:26:49;101074.70;;;3.40;43.54
70916;BME280;58557;50.982;-3.222;2022-12-18T02:29:16;101078.20;;;3.01;44.49
70916;BME280;58557;50.982;-3.222;2022-12-18T02:31:42;101078.20;;;2.93;45.42
70916;BME280;58557;50.982;-3.222;2022-12-18T02:34:05;101086.13;;;3.62;44.35
70916;BME280;58557;50.982;-3.222;2022-12-18T02:36:30;101079.84;;;3.69;43.23
70916;BME280;58557;50.982;-3.222;2022-12-18T02:38:55;101058.16;;;4.07;43.97
70916;BME280;58557;50.982;-3.222;2022-12-18T02:41:21;101058.42;;;4.37;41.67
70916;BME280;58557;50.982;-3.222;2022-12-18T02:43:47;101067.29;;;4.57;42.04
70916;BME280;58557;50.982;-3.222;2022-12-18T02:46:23;101050.39;;;4.72;42.19
70916;BME280;58557;50.982;-3.222;2022-12-18T02:48:36;101052.06;;;4.50;42.19
70916;BME280;58557;50.982;-3.222;2022-12-18T02:51:08;101045.61;;;4.24;43.20
70916;BME280;58557;50.982;-3.222;2022-12-18T02:53:33;101040.84;;;5.01;41.37
70916;BME280;58557;50.982;-3.222;2022-12-18T02:56:00;101053.96;;;2.96;44.34
70916;BME280;58557;50.982;-3.222;2022-12-18T02:58:20;101048.03;;;4.22;41.40
70916;BME280;58557;50.982;-3.222;2022-12-18T03:00:50;101042.72;;;4.37;42.24
70916;BME280;58557;50.982;-3.222;2022-12-18T03:03:13;101050.14;;;3.27;44.39
70916;BME280;58557;50.982;-3.222;2022-12-18T03:05:38;101032.74;;;3.69;42.78
70916;BME280;58557;50.982;-3.222;2022-12-18T03:08:02;101025.91;;;4.47;43.07
70916;BME280;58557;50.982;-3.222;2022-12-18T03:10:28;101023.06;;;3.43;43.79
70916;BME280;58557;50.982;-3.222;2022-12-18T03:12:53;101027.20;;;4.15;42.86
70916;BME280;58557;50.982;-3.222;2022-12-18T03:15:18;101026.86;;;4.71;41.75
70916;BME280;58557;50.982;-3.222;2022-12-18T03:17:43;101026.91;;;4.16;43.45
70916;BME280;58557;50.982;-3.222;2022-12-18T03:20:11;101027.70;;;2.83;43.77
70916;BME280;58557;50.982;-3.222;2022-12-18T03:22:33;101021.08;;;3.48;44.14
70916;BME280;58557;50.982;-3.222;2022-12-18T03:24:57;101018.53;;;3.67;43.84
70916;BME280;58557;50.982;-3.222;2022-12-18T03:27:23;101025.89;;;1.68;48.63
70916;BME280;58557;50.982;-3.222;2022-12-18T03:29:50;101037.87;;;3.00;46.93
70916;BME280;58557;50.982;-3.222;2022-12-18T03:32:17;101029.20;;;4.17;43.21
70916;BME280;58557;50.982;-3.222;2022-12-18T03:34:40;101031.86;;;3.37;45.55
70916;BME280;58557;50.982;-3.222;2022-12-18T03:37:03;101017.91;;;2.89;46.15
70916;BME280;58557;50.982;-3.222;2022-12-18T03:39:28;101012.27;;;4.04;44.10
70916;BME280;58557;50.982;-3.222;2022-12-18T03:41:59;100997.52;;;4.13;43.94
70916;BME280;58557;50.982;-3.222;2022-12-18T03:44:25;100987.24;;;4.90;42.24
70916;BME280;58557;50.982;-3.222;2022-12-18T03:46:52;100980.94;;;4.83;41.88
70916;BME280;58557;50.982;-3.222;2022-12-18T03:49:14;100964.80;;;5.15;41.27
70916;BME280;58557;50.982;-3.222;2022-12-18T03:51:40;100953.23;;;4.70;42.62
70916;BME280;58557;50.982;-3.222;2022-12-18T03:54:03;100951.90;;;3.13;44.32
70916;BME280;58557;50.982;-3.222;2022-12-18T03:56:31;100945.03;;;4.03;43.96
70916;BME280;58557;50.982;-3.222;2022-12-18T03:58:54;100943.29;;;3.71;44.39
70916;BME280;58557;50.982;-3.222;2022-12-18T04:01:22;100944.33;;;4.69;42.32
70916;BME280;58557;50.982;-3.222;2022-12-18T04:03:45;100946.52;;;4.23;42.69
70916;BME280;58557;50.982;-3.222;2022-12-18T04:06:10;100943.32;;;4.35;42.99
70916;BME280;58557;50.982;-3.222;2022-12-18T04:08:35;100932.18;;;2.42;46.56
70916;BME280;58557;50.982;-3.222;2022-12-18T04:11:00;100929.11;;;4.04;45.20
70916;BME280;58557;50.982;-3.222;2022-12-18T04:13:29;100923.12;;;4.75;42.33
70916;BME280;58557;50.982;-3.222;2022-12-18T04:15:51;100917.20;;;5.18;41.21
70916;BME280;58557;50.982;-3.222;2022-12-18T04:18:16;100909.37;;;5.45;42.17
70916;BME280;58557;50.982;-3.222;2022-12-18T04:20:42;100903.34;;;5.03;42.09
70916;BME280;58557;50.982;-3.222;2022-12-18T04:23:07;100902.80;;;5.41;40.50
70916;BME280;58557;50.982;-3.222;2022-12-18T04:25:32;100897.19;;;5.25;42.17
70916;BME280;58557;50.982;-3.222;2022-12-18T04:27:57;100892.17;;;4.53;42.09
70916;BME280;58557;50.982;-3.222;2022-12-18T04:30:23;100900.70;;;4.65;42.59
70916;BME280;58557;50.982;-3.222;2022-12-18T04:32:48;100895.65;;;4.50;44.67
70916;BME280;58557;50.982;-3.222;2022-12-18T04:35:14;100893.82;;;4.15;43.99
70916;BME280;58557;50.982;-3.222;2022-12-18T04:37:39;100889.79;;;4.56;43.85
70916;BME280;58557;50.982;-3.222;2022-12-18T04:40:06;100880.29;;;4.20;45.81
70916;BME280;58557;50.982;-3.222;2022-12-18T04:42:30;100871.37;;;3.70;47.75
70916;BME280;58557;50.982;-3.222;2022-12-18T04:44:55;100871.82;;;2.87;48.13
70916;BME280;58557;50.982;-3.222;2022-12-18T04:47:21;100877.47;;;4.05;46.98
70916;BME280;58557;50.982;-3.222;2022-12-18T04:49:46;100866.34;;;4.34;45.76
70916;BME280;58557;50.982;-3.222;2022-12-18T04:52:12;100866.56;;;3.44;47.23
70916;BME280;58557;50.982;-3.222;2022-12-18T04:54:38;100864.13;;;3.18;49.38
70916;BME280;58557;50.982;-3.222;2022-12-18T04:57:03;100861.22;;;4.31;46.34
70916;BME280;58557;50.982;-3.222;2022-12-18T04:59:28;100853.10;;;4.17;48.19
70916;BME280;58557;50.982;-3.222;2022-12-18T05:01:54;100842.99;;;5.18;45.12
70916;BME280;58557;50.982;-3.222;2022-12-18T05:04:19;100837.80;;;4.32;46.50
70916;BME280;58557;50.982;-3.222;2022-12-18T05:06:44;100837.11;;;4.94;46.06
70916;BME280;58557;50.982;-3.222;2022-12-18T05:09:10;100830.99;;;5.32;44.94
70916;BME280;58557;50.982;-3.222;2022-12-18T05:11:35;100828.87;;;4.55;45.51
70916;BME280;58557;50.982;-3.222;2022-12-18T05:14:01;100827.18;;;5.22;44.49
70916;BME280;58557;50.982;-3.222;2022-12-18T05:16:27;100821.66;;;4.02;48.07
70916;BME280;58557;50.982;-3.222;2022-12-18T05:18:52;100823.87;;;3.81;50.03
70916;BME280;58557;50.982;-3.222;2022-12-18T05:21:18;100817.36;;;3.25;51.23
70916;BME280;58557;50.982;-3.222;2022-12-18T05:23:43;100809.75;;;5.38;47.89
70916;BME280;58557;50.982;-3.222;2022-12-18T05:26:09;100804.94;;;5.42;47.56
70916;BME280;58557;50.982;-3.222;2022-12-18T05:28:35;100805.52;;;5.81;46.76
70916;BME280;58557;50.982;-3.222;2022-12-18T05:31:01;100806.87;;;4.52;49.97
70916;BME280;58557;50.982;-3.222;2022-12-18T05:33:26;100800.81;;;5.03;48.40
70916;BME280;58557;50.982;-3.222;2022-12-18T05:35:51;100799.50;;;4.69;48.58
70916;BME280;58557;50.982;-3.222;2022-12-18T05:38:16;100795.39;;;6.26;45.49
70916;BME280;58557;50.982;-3.222;2022-12-18T05:40:42;100798.64;;;6.38;45.65
70916;BME280;58557;50.982;-3.222;2022-12-18T05:43:07;100802.69;;;6.63;45.96
70916;BME280;58557;50.982;-3.222;2022-12-18T05:45:32;100797.24;;;6.13;47.92
70916;BME280;58557;50.982;-3.222;2022-12-18T05:47:58;100808.61;;;6.82;46.26
70916;BME280;58557;50.982;-3.222;2022-12-18T05:50:23;100814.01;;;5.73;47.51
70916;BME280;58557;50.982;-3.222;2022-12-18T05:52:48;100805.53;;;5.87;51.59
70916;BME280;58557;50.982;-3.222;2022-12-18T05:55:14;100806.90;;;6.37;48.01
70916;BME280;58557;50.982;-3.222;2022-12-18T05:57:39;100811.34;;;6.59;47.45
70916;BME280;58557;50.982;-3.222;2022-12-18T06:00:06;100797.65;;;5.44;53.07
70916;BME280;58557;50.982;-3.222;2022-12-18T06:02:30;100792.51;;;5.65;53.29
70916;BME280;58557;50.982;-3.222;2022-12-18T06:04:56;100800.51;;;6.05;53.46
70916;BME280;58557;50.982;-3.222;2022-12-18T06:07:21;100801.02;;;4.97;54.95
70916;BME280;58557;50.982;-3.222;2022-12-18T06:09:46;100798.88;;;5.36;55.23
70916;BME280;58557;50.982;-3.222;2022-12-18T06:12:11;100793.90;;;5.70;55.42
70916;BME280;58557;50.982;-3.222;2022-12-18T06:14:37;100798.93;;;4.50;57.32
70916;BME280;58557;50.982;-3.222;2022-12-18T06:17:02;100791.21;;;5.79;55.64
70916;BME280;58557;50.982;-3.222;2022-12-18T06:19:27;100780.41;;;5.99;56.15
70916;BME280;58557;50.982;-3.222;2022-12-18T06:21:53;100778.54;;;4.38;59.71
70916;BME280;58557;50.982;-3.222;2022-12-18T06:24:18;100770.73;;;4.60;59.23
70916;BME280;58557;50.982;-3.222;2022-12-18T06:26:43;100761.12;;;5.14;58.28
70916;BME280;58557;50.982;-3.222;2022-12-18T06:29:09;100764.30;;;4.60;61.04
70916;BME280;58557;50.982;-3.222;2022-12-18T06:31:35;100773.48;;;4.11;61.99
70916;BME280;58557;50.982;-3.222;2022-12-18T06:34:03;100777.72;;;4.12;63.52
70916;BME280;58557;50.982;-3.222;2022-12-18T06:36:25;100767.48;;;4.57;61.48
70916;BME280;58557;50.982;-3.222;2022-12-18T06:38:51;100763.69;;;4.99;61.63
70916;BME280;58557;50.982;-3.222;2022-12-18T06:41:19;100757.70;;;5.38;60.19
70916;BME280;58557;50.982;-3.222;2022-12-18T06:43:41;100764.56;;;4.38;62.70
70916;BME280;58557;50.982;-3.222;2022-12-18T06:46:08;100764.32;;;4.39;63.94
70916;BME280;58557;50.982;-3.222;2022-12-18T06:48:33;100770.37;;;4.06;63.83
70916;BME280;58557;50.982;-3.222;2022-12-18T06:50:58;100777.26;;;4.42;65.44
70916;BME280;58557;50.982;-3.222;2022-12-18T06:53:23;100775.91;;;4.23;66.20
70916;BME280;58557;50.982;-3.222;2022-12-18T06:55:48;100764.72;;;4.84;63.58
70916;BME280;58557;50.982;-3.222;2022-12-18T06:58:15;100766.21;;;4.91;63.27
70916;BME280;58557;50.982;-3.222;2022-12-18T07:00:40;100768.77;;;4.44;64.83
70916;BME280;58557;50.982;-3.222;2022-12-18T07:03:05;100774.01;;;4.42;66.29
70916;BME280;58557;50.982;-3.222;2022-12-18T07:05:30;100772.12;;;4.48;66.10
70916;BME280;58557;50.982;-3.222;2022-12-18T07:07:55;100773.98;;;4.90;63.54
70916;BME280;58557;50.982;-3.222;2022-12-18T07:10:21;100773.98;;;4.03;66.50
70916;BME280;58557;50.982;-3.222;2022-12-18T07:12:46;100752.44;;;4.52;64.47
70916;BME280;58557;50.982;-3.222;2022-12-18T07:15:12;100732.28;;;5.47;62.70
70916;BME280;58557;50.982;-3.222;2022-12-18T07:17:37;100724.20;;;5.65;62.32
70916;BME280;58557;50.982;-3.222;2022-12-18T07:20:03;100729.12;;;5.28;62.64
70916;BME280;58557;50.982;-3.222;2022-12-18T07:22:29;100727.39;;;5.92;59.24
70916;BME280;58557;50.982;-3.222;2022-12-18T07:24:54;100723.51;;;5.71;59.99
70916;BME280;58557;50.982;-3.222;2022-12-18T07:27:20;100719.31;;;5.37;60.53
70916;BME280;58557;50.982;-3.222;2022-12-18T07:29:45;100726.07;;;5.16;62.14
70916;BME280;58557;50.982;-3.222;2022-12-18T07:32:10;100720.41;;;7.02;56.30
70916;BME280;58557;50.982;-3.222;2022-12-18T07:34:36;100718.19;;;5.95;58.42
70916;BME280;58557;50.982;-3.222;2022-12-18T07:37:01;100716.49;;;5.25;62.63
70916;BME280;58557;50.982;-3.222;2022-12-18T07:39:27;100706.96;;;5.66;61.25
70916;BME280;58557;50.982;-3.222;2022-12-18T07:41:52;100693.72;;;6.06;60.32
70916;BME280;58557;50.982;-3.222;2022-12-18T07:44:18;100697.13;;;5.09;63.52
70916;BME280;58557;50.982;-3.222;2022-12-18T07:46:44;100707.18;;;5.14;62.95
70916;BME280;58557;50.982;-3.222;2022-12-18T07:49:09;100715.60;;;4.64;61.95
70916;BME280;58557;50.982;-3.222;2022-12-18T07:51:34;100717.78;;;6.26;59.14
70916;BME280;58557;50.982;-3.222;2022-12-18T07:53:59;100702.41;;;7.12;56.83
70916;BME280;58557;50.982;-3.222;2022-12-18T07:56:25;100707.85;;;7.68;55.23
70916;BME280;58557;50.982;-3.222;2022-12-18T07:58:50;100702.15;;;7.91;54.28
70916;BME280;58557;50.982;-3.222;2022-12-18T08:01:15;100702.41;;;7.95;54.23
70916;BME280;58557;50.982;-3.222;2022-12-18T08:03:41;100701.73;;;7.77;53.07
70916;BME280;58557;50.982;-3.222;2022-12-18T08:06:08;100695.25;;;7.85;54.03
70916;BME280;58557;50.982;-3.222;2022-12-18T08:08:32;100683.94;;;7.71;55.90
70916;BME280;58557;50.982;-3.222;2022-12-18T08:10:58;100665.91;;;6.68;57.02
70916;BME280;58557;50.982;-3.222;2022-12-18T08:13:23;100669.90;;;7.50;54.95
70916;BME280;58557;50.982;-3.222;2022-12-18T08:15:57;100675.16;;;7.43;55.63
70916;BME280;58557;50.982;-3.222;2022-12-18T08:18:14;100684.01;;;6.98;56.67
70916;BME280;58557;50.982;-3.222;2022-12-18T08:20:39;100688.42;;;7.46;55.54
70916;BME280;58557;50.982;-3.222;2022-12-18T08:23:05;100693.39;;;7.64;57.04
70916;BME280;58557;50.982;-3.222;2022-12-18T08:25:31;100693.67;;;7.45;53.49
70916;BME280;58557;50.982;-3.222;2022-12-18T08:27:56;100684.87;;;8.50;53.26
70916;BME280;58557;50.982;-3.222;2022-12-18T08:30:22;100683.84;;;7.30;54.82
70916;BME280;58557;50.982;-3.222;2022-12-18T08:32:49;100679.40;;;7.26;56.18
70916;BME280;58557;50.982;-3.222;2022-12-18T08:35:12;100676.15;;;7.31;56.14
70916;BME280;58557;50.982;-3.222;2022-12-18T08:37:38;100668.34;;;7.46;56.83
70916;BME280;58557;50.982;-3.222;2022-12-18T08:40:04;100660.53;;;7.27;57.28
70916;BME280;58557;50.982;-3.222;2022-12-18T08:42:29;100659.12;;;6.72;57.79
70916;BME280;58557;50.982;-3.222;2022-12-18T08:44:54;100662.79;;;6.38;58.52
70916;BME280;58557;50.982;-3.222;2022-12-18T08:47:20;100665.71;;;6.15;59.75
70916;BME280;58557;50.982;-3.222;2022-12-18T08:49:46;100659.29;;;6.33;58.00
70916;BME280;58557;50.982;-3.222;2022-12-18T08:52:11;100649.13;;;6.52;57.83
70916;BME280;58557;50.982;-3.222;2022-12-18T08:54:36;100639.50;;;6.78;57.45
70916;BME280;58557;50.982;-3.222;2022-12-18T08:57:02;100634.70;;;6.83;57.53
70916;BME280;58557;50.982;-3.222;2022-12-18T08:59:27;100621.75;;;6.58;58.66
70916;BME280;58557;50.982;-3.222;2022-12-18T09:01:53;100617.44;;;5.80;60.01
70916;BME280;58557;50.982;-3.222;2022-12-18T09:04:18;100606.35;;;6.02;61.26
70916;BME280;58557;50.982;-3.222;2022-12-18T09:06:43;100597.57;;;6.19;60.42
70916;BME280;58557;50.982;-3.222;2022-12-18T09:09:09;100578.59;;;5.06;62.82
70916;BME280;58557;50.982;-3.222;2022-12-18T09:11:35;100572.13;;;5.93;61.41
70916;BME280;58557;50.982;-3.222;2022-12-18T09:14:01;100582.41;;;5.80;62.04
70916;BME280;58557;50.982;-3.222;2022-12-18T09:16:27;100590.05;;;5.99;61.13
70916;BME280;58557;50.982;-3.222;2022-12-18T09:18:51;100585.48;;;6.00;60.39
70916;BME280;58557;50.982;-3.222;2022-12-18T09:21:18;100580.24;;;6.66;59.32
70916;BME280;58557;50.982;-3.222;2022-12-18T09:23:42;100572.59;;;6.60;57.47
70916;BME280;58557;50.982;-3.222;2022-12-18T09:26:07;100562.68;;;7.19;57.44
70916;BME280;58557;50.982;-3.222;2022-12-18T09:28:33;100549.38;;;6.53;58.36
70916;BME280;58557;50.982;-3.222;2022-12-18T09:30:58;100551.07;;;6.82;59.56
70916;BME280;58557;50.982;-3.222;2022-12-18T09:33:24;100553.64;;;7.01;58.45
70916;BME280;58557;50.982;-3.222;2022-12-18T09:35:50;100544.80;;;6.36;60.68
70916;BME280;58557;50.982;-3.222;2022-12-18T09:38:17;100533.97;;;5.83;64.66
70916;BME280;58557;50.982;-3.222;2022-12-18T09:40:43;100531.02;;;5.67;64.86
70916;BME280;58557;50.982;-3.222;2022-12-18T09:43:06;100528.61;;;6.04;66.14
70916;BME280;58557;50.982;-3.222;2022-12-18T09:45:37;100532.88;;;5.92;65.53
70916;BME280;58557;50.982;-3.222;2022-12-18T09:47:57;100522.43;;;6.63;65.24
70916;BME280;58557;50.982;-3.222;2022-12-18T09:50:29;100515.34;;;7.17;59.87
70916;BME280;58557;50.982;-3.222;2022-12-18T09:52:52;100506.86;;;5.73;63.12
70916;BME280;58557;50.982;-3.222;2022-12-18T09:55:20;100508.30;;;5.25;65.70
70916;BME280;58557;50.982;-3.222;2022-12-18T09:57:45;100505.06;;;4.74;67.54
70916;BME280;58557;50.982;-3.222;2022-12-18T10:00:11;100494.48;;;4.64;68.75
70916;BME280;58557;50.982;-3.222;2022-12-18T10:02:31;100482.51;;;4.56;67.53
70916;BME280;58557;50.982;-3.222;2022-12-18T10:05:04;100482.00;;;4.78;67.28
70916;BME280;58557;50.982;-3.222;2022-12-18T10:07:26;100480.27;;;6.01;62.61
70916;BME280;58557;50.982;-3.222;2022-12-18T10:09:53;100472.76;;;5.86;63.30
70916;BME280;58557;50.982;-3.222;2022-12-18T10:12:19;100479.33;;;5.64;63.11
70916;BME280;58557;50.982;-3.222;2022-12-18T10:14:44;100469.00;;;5.94;62.65
70916;BME280;58557;50.982;-3.222;2022-12-18T10:17:11;100460.36;;;5.33;62.81
70916;BME280;58557;50.982;-3.222;2022-12-18T10:19:37;100458.86;;;5.43;64.63
70916;BME280;58557;50.982;-3.222;2022-12-18T10:22:01;100450.49;;;4.16;67.96
70916;BME280;58557;50.982;-3.222;2022-12-18T10:24:28;100447.34;;;4.72;68.55
70916;BME280;58557;50.982;-3.222;2022-12-18T10:26:47;100448.71;;;5.84;64.94
70916;BME280;58557;50.982;-3.222;2022-12-18T10:29:13;100441.99;;;6.36;60.78
70916;BME280;58557;50.982;-3.222;2022-12-18T10:31:37;100429.73;;;7.03;58.83
70916;BME280;58557;50.982;-3.222;2022-12-18T10:34:02;100424.49;;;7.31;56.74
70916;BME280;58557;50.982;-3.222;2022-12-18T10:36:28;100424.53;;;7.05;58.86
70916;BME280;58557;50.982;-3.222;2022-12-18T10:38:53;100426.33;;;6.59;74.63
70916;BME280;58557;50.982;-3.222;2022-12-18T10:41:26;100418.91;;;7.11;73.97
70916;BME280;58557;50.982;-3.222;2022-12-18T10:43:45;100409.57;;;6.67;77.84
70916;BME280;58557;50.982;-3.222;2022-12-18T10:46:14;100395.07;;;6.80;81.08
70916;BME280;58557;50.982;-3.222;2022-12-18T10:51:01;100391.48;;;6.86;80.24
70916;BME280;58557;50.982;-3.222;2022-12-18T10:53:28;100385.23;;;7.61;78.03
70916;BME280;58557;50.982;-3.222;2022-12-18T10:55:54;100378.12;;;7.39;79.56
70916;BME280;58557;50.982;-3.222;2022-12-18T10:58:23;100374.73;;;6.95;82.01
70916;BME280;58557;50.982;-3.222;2022-12-18T11:00:43;100367.35;;;6.57;85.68
70916;BME280;58557;50.982;-3.222;2022-12-18T11:05:35;100363.70;;;7.50;83.72
70916;BME280;58557;50.982;-3.222;2022-12-18T11:08:01;100361.26;;;6.72;86.98
70916;BME280;58557;50.982;-3.222;2022-12-18T11:10:30;100347.90;;;6.71;85.21
70916;BME280;58557;50.982;-3.222;2022-12-18T11:12:52;100337.17;;;6.71;86.65
70916;BME280;58557;50.982;-3.222;2022-12-18T11:15:20;100336.98;;;6.94;85.19
70916;BME280;58557;50.982;-3.222;2022-12-18T11:17:43;100327.45;;;6.95;87.02
70916;BME280;58557;50.982;-3.222;2022-12-18T11:20:20;100319.83;;;7.36;84.32
70916;BME280;58557;50.982;-3.222;2022-12-18T11:22:35;100314.57;;;7.84;82.38
70916;BME280;58557;50.982;-3.222;2022-12-18T11:25:02;100307.26;;;6.61;88.89
70916;BME280;58557;50.982;-3.222;2022-12-18T11:27:26;100290.82;;;6.75;89.22
70916;BME280;58557;50.982;-3.222;2022-12-18T11:29:51;100291.10;;;6.67;88.39
70916;BME280;58557;50.982;-3.222;2022-12-18T11:32:27;100280.26;;;6.50;88.94
70916;BME280;58557;50.982;-3.222;2022-12-18T11:34:45;100264.77;;;6.80;90.05
70916;BME280;58557;50.982;-3.222;2022-12-18T11:37:07;100268.21;;;6.69;90.01
70916;BME280;58557;50.982;-3.222;2022-12-18T11:39:36;100279.22;;;6.84;88.24
70916;BME280;58557;50.982;-3.222;2022-12-18T11:42:03;100273.80;;;6.88;92.17
70916;BME280;58557;50.982;-3.222;2022-12-18T11:44:27;100245.45;;;6.25;93.40
70916;BME280;58557;50.982;-3.222;2022-12-18T11:46:52;100245.70;;;6.77;92.92
70916;BME280;58557;50.982;-3.222;2022-12-18T11:49:20;100241.57;;;6.44;93.77
70916;BME280;58557;50.982;-3.222;2022-12-18T11:51:44;100232.54;;;6.14;95.22
70916;BME280;58557;50.982;-3.222;2022-12-18T11:54:10;100232.48;;;6.81;93.19
70916;BME280;58557;50.982;-3.222;2022-12-18T11:56:33;100237.37;;;7.06;93.07
70916;BME280;58557;50.982;-3.222;2022-12-18T11:59:05;100219.72;;;6.62;93.27
70916;BME280;58557;50.982;-3.222;2022-12-18T12:01:33;100222.81;;;6.93;93.04
70916;BME280;58557;50.982;-3.222;2022-12-18T12:04:01;100216.22;;;7.10;92.65
70916;BME280;58557;50.982;-3.222;2022-12-18T12:06:16;100215.54;;;7.43;90.10
70916;BME280;58557;50.982;-3.222;2022-12-18T12:08:49;100206.90;;;6.87;92.35
70916;BME280;58557;50.982;-3.222;2022-12-18T12:11:09;100201.86;;;7.68;91.26
70916;BME280;58557;50.982;-3.222;2022-12-18T12:13:38;100197.41;;;7.42;89.82
70916;BME280;58557;50.982;-3.222;2022-12-18T12:16:05;100184.10;;;7.09;90.81
70916;BME280;58557;50.982;-3.222;2022-12-18T12:18:29;100188.17;;;7.06;92.67
70916;BME280;58557;50.982;-3.222;2022-12-18T12:20:52;100171.54;;;6.75;93.61
70916;BME280;58557;50.982;-3.222;2022-12-18T12:23:17;100169.02;;;7.24;92.05
70916;BME280;58557;50.982;-3.222;2022-12-18T12:25:44;100173.13;;;6.83;93.84
70916;BME280;58557;50.982;-3.222;2022-12-18T12:28:13;100164.74;;;7.00;93.63
70916;BME280;58557;50.982;-3.222;2022-12-18T12:30:36;100148.15;;;6.85;93.28
70916;BME280;58557;50.982;-3.222;2022-12-18T12:33:04;100145.68;;;6.55;95.40
70916;BME280;58557;50.982;-3.222;2022-12-18T12:35:29;100139.59;;;6.68;95.90
70916;BME280;58557;50.982;-3.222;2022-12-18T12:37:51;100127.54;;;6.82;95.33
70916;BME280;58557;50.982;-3.222;2022-12-18T12:40:13;100122.26;;;7.02;94.77
70916;BME280;58557;50.982;-3.222;2022-12-18T12:42:41;100124.55;;;7.07;94.06
70916;BME280;58557;50.982;-3.222;2022-12-18T12:45:05;100116.92;;;6.74;95.71